Airport View

Enter AWOS ICAO identifier for current METAR.

ex. KFNL

K33V 251619Z AUTO 32010KT 1/2SM OVC004 M14/M17 A2987 RMK AO1

25 Oct 2020 17:16

Frequency: 118.625

Phone: 970-723-4513

Other Area AWOS: KSBS - KC07 - K20V - KGNB

TAF KLAR 251129Z 2512/2612 06014KT 1/2SM SN FG VV008 FM251500 05015G22KT 1SM -SN BR BLSN OVC015 FM251900 09015G22KT 2SM -SN BR BLSN OVC025 FM260300 08009KT 2SM BR OVC020